createdAt,value
2022-08-07T00:14:30.232Z,100.00
2022-08-07T00:29:26.437Z,100.00
2022-08-07T00:44:26.555Z,100.00
2022-08-07T00:59:35.156Z,100.00
2022-08-07T01:14:28.710Z,100.00
2022-08-07T01:29:27.723Z,100.00
2022-08-07T01:44:26.691Z,100.00
2022-08-07T01:59:30.986Z,100.00
2022-08-07T02:14:36.086Z,100.00
2022-08-07T02:29:26.778Z,100.00
2022-08-07T02:44:34.726Z,100.00
2022-08-07T02:59:27.451Z,100.00
2022-08-07T03:14:27.931Z,100.00
2022-08-07T03:29:27.641Z,100.00
2022-08-07T03:44:34.564Z,100.00
2022-08-07T03:59:27.001Z,100.00
2022-08-07T04:14:38.645Z,100.00
2022-08-07T04:29:27.072Z,100.00
2022-08-07T04:44:27.153Z,100.00
2022-08-07T05:00:11.803Z,100.00
2022-08-07T05:14:55.527Z,100.00
2022-08-07T05:29:27.332Z,100.00
2022-08-07T05:44:29.292Z,100.00
2022-08-07T05:59:28.024Z,100.00
2022-08-07T06:14:28.851Z,100.00
2022-08-07T06:29:27.552Z,94.54
2022-08-07T06:44:31.149Z,83.24
2022-08-07T07:00:13.862Z,68.27
2022-08-07T07:14:27.504Z,62.92
2022-08-07T07:29:39.180Z,60.36
2022-08-07T07:44:27.833Z,54.93
2022-08-07T07:59:52.766Z,50.30
2022-08-07T08:14:27.912Z,48.70
2022-08-07T08:29:27.920Z,44.07
2022-08-07T08:44:29.315Z,39.22
2022-08-07T08:59:27.820Z,38.93
2022-08-07T09:14:29.635Z,38.07
2022-08-07T09:30:03.873Z,36.79
2022-08-07T09:44:32.839Z,37.28
2022-08-07T09:59:30.525Z,36.49
2022-08-07T10:14:31.965Z,35.10
2022-08-07T10:29:30.153Z,34.31
2022-08-07T10:44:33.778Z,33.07
2022-08-07T10:59:30.446Z,34.61
2022-08-07T11:14:43.989Z,33.44
2022-08-07T11:29:41.791Z,33.50
2022-08-07T11:44:28.473Z,33.81
2022-08-07T12:00:10.443Z,32.73
2022-08-07T12:14:28.520Z,31.79
2022-08-07T12:29:37.527Z,33.91
2022-08-07T12:44:28.438Z,32.61
2022-08-07T12:59:30.471Z,33.54
2022-08-07T13:14:29.104Z,32.14
2022-08-07T13:29:28.535Z,32.63
2022-08-07T13:44:34.686Z,32.28
2022-08-07T13:59:28.832Z,30.90
2022-08-07T14:14:29.991Z,33.00
2022-08-07T14:30:05.824Z,31.16
2022-08-07T14:44:29.074Z,30.62
2022-08-07T15:00:05.781Z,35.26
2022-08-07T15:14:30.818Z,33.30
2022-08-07T15:30:06.885Z,33.23
2022-08-07T15:44:28.939Z,34.48
2022-08-07T15:59:43.794Z,35.16
2022-08-07T16:14:29.169Z,34.99
2022-08-07T16:30:11.001Z,36.83
2022-08-07T16:44:40.215Z,36.90
2022-08-07T16:59:46.377Z,37.21
2022-08-07T17:14:29.205Z,36.83
2022-08-07T17:30:15.380Z,38.18
2022-08-07T17:44:33.591Z,38.79
2022-08-07T17:59:35.727Z,40.07
2022-08-07T18:14:29.191Z,40.44
2022-08-07T18:30:05.703Z,41.56
2022-08-07T18:44:29.463Z,41.85
2022-08-07T18:59:47.325Z,43.97
2022-08-07T19:14:29.551Z,45.36
2022-08-07T19:31:02.072Z,46.83
2022-08-07T19:44:31.518Z,48.53
2022-08-07T19:59:40.686Z,49.55
2022-08-07T20:14:31.336Z,51.15
2022-08-07T20:29:48.907Z,52.94
2022-08-07T20:44:29.825Z,54.77
2022-08-07T21:00:06.222Z,58.58
2022-08-07T21:14:34.280Z,60.97
2022-08-07T21:29:30.367Z,62.85
2022-08-07T21:44:30.291Z,66.98
2022-08-07T21:59:30.110Z,71.93
2022-08-07T22:14:34.844Z,76.81
2022-08-07T22:29:38.098Z,82.41
2022-08-07T22:44:32.650Z,86.63
2022-08-07T22:59:32.699Z,90.45
2022-08-07T23:14:30.724Z,93.82
2022-08-07T23:29:43.454Z,97.20
2022-08-07T23:44:30.658Z,99.40
